Phoenix, Arizona
Current Conditions -  °F | °C
As of 11:51 AM on Saturday 25 Oct 2014 (Local Time) from KPHX Reporting Station
Scattered Clouds Scattered Clouds  
Wind Chill: 89°   Ceiling: Unl
Heat Index: 89°   Visibility: 10mi
Dew Point: 48°   Wind: 0mph
Humidity: 24%   Direction: NA
Pressure: 29.99"   Gusts: NA
Location:  33.45°N, 112.08°W
Report Text: KPHX 251851Z 00000KT 10SM FEW120 SCT200 32/09 A2999 RMK AO2 SLP139 T03170089
Loading
Personal Weather Stations






























Interactive Weather Map
Tropical Storm Tracking
New forecast layout! Learn more

10-Day Weather Forecast

Advertisements
Track Severe Weather on mobile